createdAt,value
2022-08-30T00:01:26.663Z,101809.63
2022-08-30T00:03:56.109Z,101811.41
2022-08-30T00:06:24.609Z,101817.84
2022-08-30T00:08:53.074Z,101817.91
2022-08-30T00:11:24.675Z,101821.72
2022-08-30T00:13:53.973Z,101822.72
2022-08-30T00:16:23.423Z,101819.25
2022-08-30T00:18:52.065Z,101819.19
2022-08-30T00:21:20.394Z,101808.28
2022-08-30T00:23:48.338Z,101817.31
2022-08-30T00:26:16.179Z,101819.06
2022-08-30T00:28:45.571Z,101811.78
2022-08-30T00:31:15.421Z,101810.84
2022-08-30T00:33:43.827Z,101806.38
2022-08-30T00:36:11.774Z,101802.75
2022-08-30T00:38:39.688Z,101803.03
2022-08-30T00:41:07.830Z,101814.75
2022-08-30T00:43:37.142Z,101810.41
2022-08-30T00:46:08.711Z,101814.22
2022-08-30T00:48:41.048Z,101814.13
2022-08-30T00:51:12.899Z,101816.72
2022-08-30T00:53:45.263Z,101806.84
2022-08-30T00:56:13.892Z,101812.13
2022-08-30T00:58:45.526Z,101813.91
2022-08-30T01:01:15.221Z,101806.63
2022-08-30T01:03:44.838Z,101812.91
2022-08-30T01:06:15.227Z,101808.47
2022-08-30T01:08:43.432Z,101815.72
2022-08-30T01:11:12.427Z,101815.72
2022-08-30T01:13:40.786Z,101821.19
2022-08-30T01:16:09.650Z,101824.75
2022-08-30T01:18:39.906Z,101817.50
2022-08-30T01:21:16.421Z,101820.22
2022-08-30T01:23:47.955Z,101826.59
2022-08-30T01:26:17.432Z,101822.06
2022-08-30T01:28:51.592Z,101815.72
2022-08-30T01:31:19.865Z,101814.88
2022-08-30T01:33:51.126Z,101803.50
2022-08-30T01:36:23.085Z,101815.38
2022-08-30T01:38:54.786Z,101817.22
2022-08-30T01:41:25.273Z,101819.13
2022-08-30T01:43:57.004Z,101813.72
2022-08-30T01:46:28.777Z,101813.94
2022-08-30T01:48:59.207Z,101816.78
2022-08-30T01:51:29.572Z,101825.81
2022-08-30T01:53:59.379Z,101823.25
2022-08-30T01:56:29.463Z,101823.22
2022-08-30T01:59:02.581Z,101827.59
2022-08-30T02:01:32.859Z,101824.88
2022-08-30T02:04:01.319Z,101827.56
2022-08-30T02:06:29.847Z,101828.78
2022-08-30T02:08:59.263Z,101824.38
2022-08-30T02:11:30.083Z,101823.44
2022-08-30T02:13:58.047Z,101827.03
2022-08-30T02:16:26.880Z,101820.72
2022-08-30T02:18:56.276Z,101824.28
2022-08-30T02:21:24.832Z,101825.38
2022-08-30T02:23:53.320Z,101818.19
2022-08-30T02:26:23.256Z,101816.31
2022-08-30T02:28:51.723Z,101806.44
2022-08-30T02:31:21.139Z,101819.09
2022-08-30T02:33:51.191Z,101820.03
2022-08-30T02:36:20.789Z,101816.69
2022-08-30T02:38:49.678Z,101814.25
2022-08-30T02:41:18.071Z,101807.88
2022-08-30T02:43:47.798Z,101809.66
2022-08-30T02:46:15.842Z,101809.88
2022-08-30T02:48:44.170Z,101812.84
2022-08-30T02:51:15.173Z,101812.09
2022-08-30T02:53:44.547Z,101803.00
2022-08-30T02:56:13.403Z,101802.03
2022-08-30T02:58:42.621Z,101804.13
2022-08-30T03:01:14.258Z,101816.81
2022-08-30T03:03:43.808Z,101809.69
2022-08-30T03:06:12.277Z,101815.88
2022-08-30T03:08:40.411Z,101816.91
2022-08-30T03:11:08.698Z,101809.66
2022-08-30T03:13:36.658Z,101805.06
2022-08-30T03:16:04.689Z,101808.59
2022-08-30T03:18:34.260Z,101810.47
2022-08-30T03:21:02.224Z,101809.56
2022-08-30T03:23:30.155Z,101810.41
2022-08-30T03:25:58.573Z,101803.19
2022-08-30T03:28:26.615Z,101809.56
2022-08-30T03:30:54.752Z,101800.13
2022-08-30T03:33:22.714Z,101803.63
2022-08-30T03:35:52.131Z,101800.97
2022-08-30T03:38:20.199Z,101802.88
2022-08-30T03:40:48.275Z,101803.69
2022-08-30T03:43:16.255Z,101808.97
2022-08-30T03:45:44.824Z,101808.97
2022-08-30T03:48:13.047Z,101801.69
2022-08-30T03:50:41.517Z,101791.72
2022-08-30T03:53:11.058Z,101806.03
2022-08-30T03:55:38.950Z,101806.88
2022-08-30T03:58:06.819Z,101812.25
2022-08-30T04:00:34.774Z,101806.91
2022-08-30T04:03:03.078Z,101811.41
2022-08-30T04:05:31.080Z,101808.97
2022-08-30T04:07:58.860Z,101809.00
2022-08-30T04:10:28.053Z,101808.16
2022-08-30T04:12:56.681Z,101812.72
2022-08-30T04:15:24.446Z,101812.78
2022-08-30T04:17:53.787Z,101811.03
2022-08-30T04:20:22.266Z,101814.72
2022-08-30T04:22:51.335Z,101819.28
2022-08-30T04:25:19.433Z,101816.53
2022-08-30T04:27:48.899Z,101818.44
2022-08-30T04:30:18.572Z,101813.00
2022-08-30T04:32:46.739Z,101822.91
2022-08-30T04:35:15.432Z,101821.22
2022-08-30T04:37:43.197Z,101824.09
2022-08-30T04:40:11.906Z,101825.97
2022-08-30T04:42:39.742Z,101823.34
2022-08-30T04:45:12.457Z,101831.41
2022-08-30T04:47:40.294Z,101833.16
2022-08-30T04:50:09.306Z,101833.16
2022-08-30T04:52:37.154Z,101837.59
2022-08-30T04:55:06.397Z,101835.81
2022-08-30T04:57:34.290Z,101829.38
2022-08-30T05:00:02.010Z,101830.16
2022-08-30T05:02:31.464Z,101836.41
2022-08-30T05:05:16.474Z,101843.53
2022-08-30T05:07:44.227Z,101837.25
2022-08-30T05:10:11.959Z,101850.81
2022-08-30T05:12:39.728Z,101840.91
2022-08-30T05:15:08.809Z,101848.09
2022-08-30T05:17:40.237Z,101856.25
2022-08-30T05:20:10.320Z,101858.03
2022-08-30T05:22:38.753Z,101858.03
2022-08-30T05:25:07.603Z,101860.81
2022-08-30T05:27:36.817Z,101863.50
2022-08-30T05:30:06.202Z,101868.84
2022-08-30T05:32:33.971Z,101874.38
2022-08-30T05:35:03.258Z,101871.66
2022-08-30T05:37:30.978Z,101868.88
2022-08-30T05:39:59.307Z,101875.16
2022-08-30T05:42:27.063Z,101876.97
2022-08-30T05:44:55.903Z,101872.41
2022-08-30T05:47:23.961Z,101879.41
2022-08-30T05:49:51.949Z,101872.16
2022-08-30T05:52:21.187Z,101872.97
2022-08-30T05:54:55.200Z,101866.59
2022-08-30T05:57:23.444Z,101865.69
2022-08-30T05:59:51.236Z,101879.16
2022-08-30T06:02:19.107Z,101876.53
2022-08-30T06:04:46.838Z,101875.66
2022-08-30T06:07:15.888Z,101883.72
2022-08-30T06:09:46.345Z,101878.09
2022-08-30T06:12:14.058Z,101887.69
2022-08-30T06:14:41.983Z,101882.88
2022-08-30T06:17:10.633Z,101882.59
2022-08-30T06:19:38.345Z,101888.63
2022-08-30T06:22:06.508Z,101876.78
2022-08-30T06:24:56.432Z,101873.09
2022-08-30T06:27:25.353Z,101868.88
2022-08-30T06:29:53.706Z,101878.84
2022-08-30T06:32:21.392Z,101875.22
2022-08-30T06:34:49.740Z,101874.28
2022-08-30T06:37:29.118Z,101876.94
2022-08-30T06:39:58.456Z,101877.88
2022-08-30T06:42:31.895Z,101871.44
2022-08-30T06:45:00.724Z,101875.03
2022-08-30T06:47:29.101Z,101878.56
2022-08-30T06:49:57.205Z,101873.06
2022-08-30T06:52:25.177Z,101873.84
2022-08-30T06:54:54.384Z,101873.69
2022-08-30T06:57:22.365Z,101864.56
2022-08-30T06:59:56.652Z,101869.13
2022-08-30T07:02:25.992Z,101869.13
2022-08-30T07:04:53.767Z,101870.75
2022-08-30T07:07:21.560Z,101868.13
2022-08-30T07:09:49.276Z,101873.28
2022-08-30T07:12:17.577Z,101861.63
2022-08-30T07:14:45.294Z,101870.31
2022-08-30T07:17:34.732Z,101866.38
2022-08-30T07:20:03.318Z,101864.28
2022-08-30T07:22:31.094Z,101875.00
2022-08-30T07:24:58.856Z,101876.91
2022-08-30T07:27:26.835Z,101872.09
2022-08-30T07:29:54.660Z,101870.84
2022-08-30T07:32:23.763Z,101871.41
2022-08-30T07:34:51.777Z,101865.94
2022-08-30T07:37:19.609Z,101870.22
2022-08-30T07:39:48.171Z,101870.22
2022-08-30T07:42:16.260Z,101874.53
2022-08-30T07:44:43.965Z,101871.56
2022-08-30T07:47:12.130Z,101871.72
2022-08-30T07:49:41.250Z,101874.13
2022-08-30T07:52:09.225Z,101874.66
2022-08-30T07:54:37.042Z,101872.53
2022-08-30T07:57:04.835Z,101874.22
2022-08-30T07:59:35.615Z,101878.03
2022-08-30T08:02:04.659Z,101879.91
2022-08-30T08:04:33.192Z,101884.97
2022-08-30T08:07:02.620Z,101881.38
2022-08-30T08:09:30.518Z,101895.56
2022-08-30T08:11:58.278Z,101888.09
2022-08-30T08:14:26.166Z,101884.16
2022-08-30T08:16:53.909Z,101901.03
2022-08-30T08:19:21.662Z,101891.84
2022-08-30T08:21:55.708Z,101888.94
2022-08-30T08:24:38.849Z,101895.03
2022-08-30T08:27:06.984Z,101892.09
2022-08-30T08:29:34.798Z,101897.31
2022-08-30T08:32:02.701Z,101889.25
2022-08-30T08:34:30.518Z,101890.88
2022-08-30T08:36:58.233Z,101889.03
2022-08-30T08:39:25.964Z,101896.81
2022-08-30T08:42:09.213Z,101886.53
2022-08-30T08:44:54.353Z,101892.28
2022-08-30T08:47:26.688Z,101884.63
2022-08-30T08:49:59.295Z,101893.41
2022-08-30T08:52:49.421Z,101895.97
2022-08-30T08:55:22.176Z,101895.81
2022-08-30T08:57:52.388Z,101902.19
2022-08-30T09:00:20.595Z,101896.75
2022-08-30T09:02:55.853Z,101900.06
2022-08-30T09:05:26.937Z,101894.38
2022-08-30T09:08:01.690Z,101891.38
2022-08-30T09:10:49.512Z,101894.69
2022-08-30T09:13:22.717Z,101894.81
2022-08-30T09:15:54.819Z,101895.75
2022-08-30T09:18:42.019Z,101892.31
2022-08-30T09:21:14.619Z,101889.25
2022-08-30T09:23:50.549Z,101899.75
2022-08-30T09:26:34.089Z,101892.13
2022-08-30T09:29:05.134Z,101882.19
2022-08-30T09:31:46.960Z,101883.66
2022-08-30T09:34:19.759Z,101875.22
2022-08-30T09:36:51.407Z,101881.34
2022-08-30T09:39:20.952Z,101881.72
2022-08-30T09:41:51.067Z,101897.63
2022-08-30T09:44:24.092Z,101892.69
2022-08-30T09:46:53.811Z,101882.53
2022-08-30T09:49:34.075Z,101881.19
2022-08-30T09:52:19.252Z,101887.66
2022-08-30T09:55:04.188Z,101878.47
2022-08-30T09:57:40.787Z,101879.50
2022-08-30T10:00:18.451Z,101875.44
2022-08-30T10:03:00.027Z,101868.63
2022-08-30T10:05:36.389Z,101870.66
2022-08-30T10:08:14.389Z,101864.81
2022-08-30T10:10:48.831Z,101866.78
2022-08-30T10:13:33.784Z,101866.09
2022-08-30T10:16:14.880Z,101867.69
2022-08-30T10:18:53.211Z,101857.31
2022-08-30T10:21:27.443Z,101856.63
2022-08-30T10:24:00.128Z,101857.22
2022-08-30T10:26:30.764Z,101850.66
2022-08-30T10:29:05.170Z,101851.06
2022-08-30T10:31:40.789Z,101849.25
2022-08-30T10:34:16.056Z,101851.44
2022-08-30T10:36:50.070Z,101864.91
2022-08-30T10:39:26.741Z,101843.34
2022-08-30T10:42:06.299Z,101845.63
2022-08-30T10:44:39.289Z,101845.19
2022-08-30T10:47:23.818Z,101844.72
2022-08-30T10:49:58.635Z,101838.97
2022-08-30T10:52:32.363Z,101840.25
2022-08-30T10:55:03.630Z,101843.78
2022-08-30T10:57:31.632Z,101836.59
2022-08-30T11:00:06.018Z,101845.63
2022-08-30T11:03:09.818Z,101839.25
2022-08-30T11:06:15.512Z,101851.09
2022-08-30T11:09:03.223Z,101842.19
2022-08-30T11:11:42.905Z,101842.44
2022-08-30T11:14:15.281Z,101839.97
2022-08-30T11:16:46.795Z,101841.16
2022-08-30T11:19:22.340Z,101836.28
2022-08-30T11:21:51.974Z,101843.00
2022-08-30T11:24:22.460Z,101838.72
2022-08-30T11:27:08.204Z,101824.78
2022-08-30T11:29:42.326Z,101841.81
2022-08-30T11:32:39.101Z,101831.78
2022-08-30T11:35:11.181Z,101823.25
2022-08-30T11:37:42.491Z,101831.53
2022-08-30T11:40:32.928Z,101825.56
2022-08-30T11:43:43.075Z,101828.06
2022-08-30T11:46:19.471Z,101827.81
2022-08-30T11:48:55.238Z,101825.19
2022-08-30T11:52:23.899Z,101830.31
2022-08-30T11:55:00.110Z,101816.41
2022-08-30T11:57:35.289Z,101810.47
2022-08-30T12:00:12.073Z,101808.34
2022-08-30T12:02:56.397Z,101806.34
2022-08-30T12:05:55.082Z,101801.03
2022-08-30T12:08:57.898Z,101809.63
2022-08-30T12:12:02.485Z,101800.59
2022-08-30T12:14:51.992Z,101797.19
2022-08-30T12:17:46.002Z,101807.34
2022-08-30T12:20:22.607Z,101798.47
2022-08-30T12:22:51.862Z,101797.59
2022-08-30T12:25:26.351Z,101802.31
2022-08-30T12:28:10.761Z,101796.31
2022-08-30T12:30:40.993Z,101799.03
2022-08-30T12:33:15.287Z,101791.34
2022-08-30T12:35:45.494Z,101787.09
2022-08-30T12:38:19.277Z,101783.59
2022-08-30T12:40:57.986Z,101792.69
2022-08-30T12:43:38.908Z,101788.28
2022-08-30T12:46:15.384Z,101780.19
2022-08-30T12:48:46.929Z,101778.94
2022-08-30T12:51:38.209Z,101774.31
2022-08-30T12:54:10.042Z,101768.84
2022-08-30T12:56:56.223Z,101777.69
2022-08-30T12:59:52.943Z,101766.09
2022-08-30T13:02:23.782Z,101771.03
2022-08-30T13:04:54.691Z,101764.81
2022-08-30T13:07:32.647Z,101763.16
2022-08-30T13:10:12.012Z,101754.19
2022-08-30T13:12:40.478Z,101754.47
2022-08-30T13:15:16.552Z,101750.44
2022-08-30T13:17:44.523Z,101757.84
2022-08-30T13:20:26.023Z,101757.19
2022-08-30T13:23:09.245Z,101755.84
2022-08-30T13:25:39.399Z,101758.50
2022-08-30T13:28:09.154Z,101758.63
2022-08-30T13:30:38.483Z,101754.66
2022-08-30T13:33:06.449Z,101752.00
2022-08-30T13:35:35.893Z,101754.66
2022-08-30T13:38:04.291Z,101747.88
2022-08-30T13:40:32.526Z,101754.41
2022-08-30T13:43:01.067Z,101754.66
2022-08-30T13:45:44.447Z,101751.16
2022-08-30T13:48:16.116Z,101747.53
2022-08-30T13:50:47.139Z,101738.22
2022-08-30T13:53:51.216Z,101739.91
2022-08-30T13:56:06.408Z,101734.38
2022-08-30T13:58:35.356Z,101732.69
2022-08-30T14:01:03.524Z,101733.25
2022-08-30T14:03:31.496Z,101733.13
2022-08-30T14:06:29.299Z,101732.44
2022-08-30T14:08:53.541Z,101725.63
2022-08-30T14:11:25.780Z,101725.13
2022-08-30T14:16:46.578Z,101733.38
2022-08-30T14:19:16.689Z,101725.97
2022-08-30T14:21:49.152Z,101719.28
2022-08-30T14:24:19.904Z,101722.88
2022-08-30T14:26:51.497Z,101715.78
2022-08-30T14:29:22.867Z,101712.50
2022-08-30T14:31:52.432Z,101708.94
2022-08-30T14:34:24.145Z,101707.63
2022-08-30T14:36:53.933Z,101713.78
2022-08-30T14:39:23.441Z,101708.78
2022-08-30T14:41:53.711Z,101704.03
2022-08-30T14:44:23.597Z,101712.78
2022-08-30T14:46:52.040Z,101710.81
2022-08-30T14:49:21.897Z,101706.72
2022-08-30T14:51:51.504Z,101706.72
2022-08-30T14:54:23.559Z,101706.72
2022-08-30T14:56:53.850Z,101700.88
2022-08-30T14:59:22.798Z,101704.22
2022-08-30T15:01:50.856Z,101701.22
2022-08-30T15:04:21.438Z,101701.13
2022-08-30T15:06:50.923Z,101701.47
2022-08-30T15:09:23.751Z,101693.34
2022-08-30T15:11:53.508Z,101692.47
2022-08-30T15:14:23.694Z,101686.81
2022-08-30T15:16:54.535Z,101686.03
2022-08-30T15:19:23.210Z,101684.75
2022-08-30T15:21:52.044Z,101676.69
2022-08-30T15:24:29.287Z,101682.88
2022-08-30T15:26:59.539Z,101679.41
2022-08-30T15:29:30.581Z,101683.75
2022-08-30T15:32:01.304Z,101678.25
2022-08-30T15:34:29.914Z,101682.00
2022-08-30T15:36:58.771Z,101677.00
2022-08-30T15:39:29.171Z,101682.19
2022-08-30T15:42:00.978Z,101676.47
2022-08-30T15:44:29.458Z,101674.59
2022-08-30T15:46:57.436Z,101669.41
2022-08-30T15:49:26.021Z,101667.94
2022-08-30T15:51:54.721Z,101663.84
2022-08-30T15:54:24.908Z,101664.72
2022-08-30T15:56:59.607Z,101658.38
2022-08-30T15:59:28.865Z,101654.81
2022-08-30T16:01:57.886Z,101652.09
2022-08-30T16:04:26.276Z,101645.03
2022-08-30T16:06:54.358Z,101645.28
2022-08-30T16:09:22.772Z,101647.34
2022-08-30T16:11:50.727Z,101646.91
2022-08-30T16:14:19.841Z,101641.97
2022-08-30T16:16:47.702Z,101637.72
2022-08-30T16:19:15.921Z,101636.38
2022-08-30T16:21:44.111Z,101647.03
2022-08-30T16:24:14.184Z,101647.44
2022-08-30T16:26:43.455Z,101634.72
2022-08-30T16:29:13.102Z,101642.03
2022-08-30T16:31:44.603Z,101647.28
2022-08-30T16:34:13.714Z,101650.06
2022-08-30T16:36:41.493Z,101647.44
2022-08-30T16:39:12.670Z,101641.19
2022-08-30T16:41:40.968Z,101645.06
2022-08-30T16:44:09.182Z,101640.25
2022-08-30T16:46:40.289Z,101645.63
2022-08-30T16:49:10.619Z,101647.00
2022-08-30T16:51:39.406Z,101640.41
2022-08-30T16:54:09.000Z,101633.25
2022-08-30T16:56:37.855Z,101635.97
2022-08-30T16:59:10.861Z,101627.56
2022-08-30T17:01:42.136Z,101621.66
2022-08-30T17:04:12.987Z,101626.00
2022-08-30T17:06:46.439Z,101632.25
2022-08-30T17:09:15.136Z,101640.34
2022-08-30T17:11:43.495Z,101639.81
2022-08-30T17:14:11.377Z,101648.09
2022-08-30T17:16:39.537Z,101649.59
2022-08-30T17:19:09.441Z,101654.50
2022-08-30T17:21:38.837Z,101655.59
2022-08-30T17:24:06.992Z,101655.97
2022-08-30T17:26:37.217Z,101658.97
2022-08-30T17:29:06.183Z,101665.09
2022-08-30T17:31:36.079Z,101660.72
2022-08-30T17:34:06.214Z,101662.94
2022-08-30T17:36:36.395Z,101658.28
2022-08-30T17:39:11.033Z,101654.81
2022-08-30T17:41:40.027Z,101669.44
2022-08-30T17:44:13.550Z,101673.19
2022-08-30T17:46:41.387Z,101674.31
2022-08-30T17:49:10.456Z,101670.22
2022-08-30T17:51:40.827Z,101676.44
2022-08-30T17:54:11.965Z,101677.31
2022-08-30T17:56:40.110Z,101680.03
2022-08-30T18:01:56.412Z,101688.06
2022-08-30T18:04:25.322Z,101685.75
2022-08-30T18:06:53.399Z,101688.47
2022-08-30T18:09:23.031Z,101686.78
2022-08-30T18:11:51.647Z,101692.41
2022-08-30T18:14:19.829Z,101701.28
2022-08-30T18:16:53.522Z,101695.31
2022-08-30T18:19:22.863Z,101703.75
2022-08-30T18:21:50.668Z,101712.00
2022-08-30T18:24:19.046Z,101710.16
2022-08-30T18:26:48.322Z,101719.31
2022-08-30T18:29:29.486Z,101718.78
2022-08-30T18:31:59.480Z,101717.25
2022-08-30T18:34:27.338Z,101722.09
2022-08-30T18:36:55.094Z,101725.56
2022-08-30T18:39:23.015Z,101722.69
2022-08-30T18:41:52.872Z,101733.84
2022-08-30T18:44:33.225Z,101723.72
2022-08-30T18:47:03.933Z,101723.09
2022-08-30T18:49:33.987Z,101724.47
2022-08-30T18:52:02.284Z,101719.06
2022-08-30T18:54:31.141Z,101728.38
2022-08-30T18:57:00.276Z,101732.06
2022-08-30T18:59:35.279Z,101730.78
2022-08-30T19:02:05.332Z,101739.34
2022-08-30T19:04:35.731Z,101736.47
2022-08-30T19:07:05.914Z,101742.38
2022-08-30T19:09:34.631Z,101744.09
2022-08-30T19:12:04.218Z,101747.59
2022-08-30T19:14:37.258Z,101750.69
2022-08-30T19:17:07.136Z,101761.13
2022-08-30T19:19:36.868Z,101762.03
2022-08-30T19:22:14.046Z,101762.97
2022-08-30T19:24:42.638Z,101765.22
2022-08-30T19:27:12.597Z,101757.97
2022-08-30T19:29:40.596Z,101758.91
2022-08-30T19:32:08.398Z,101760.91
2022-08-30T19:34:37.987Z,101762.78
2022-08-30T19:37:05.845Z,101761.28
2022-08-30T19:39:34.595Z,101753.06
2022-08-30T19:42:02.583Z,101754.50
2022-08-30T19:44:31.682Z,101750.75
2022-08-30T19:46:59.875Z,101751.56
2022-08-30T19:49:27.562Z,101747.41
2022-08-30T19:51:55.388Z,101746.91
2022-08-30T19:54:23.077Z,101746.06
2022-08-30T19:56:52.045Z,101747.00
2022-08-30T19:59:20.393Z,101745.22
2022-08-30T20:01:50.608Z,101752.56
2022-08-30T20:04:18.571Z,101752.00
2022-08-30T20:06:46.300Z,101750.25
2022-08-30T20:09:14.247Z,101755.16
2022-08-30T20:11:42.841Z,101750.78
2022-08-30T20:14:10.997Z,101750.94
2022-08-30T20:16:41.513Z,101745.69
2022-08-30T20:19:13.694Z,101752.31
2022-08-30T20:24:26.361Z,101686.31
2022-08-30T20:24:28.981Z,101759.81
2022-08-30T20:26:57.429Z,101760.19
2022-08-30T20:29:25.207Z,101760.31
2022-08-30T20:31:52.930Z,101755.88
2022-08-30T20:34:27.239Z,101759.31
2022-08-30T20:36:55.338Z,101754.00
2022-08-30T20:39:23.873Z,101755.88
2022-08-30T20:41:52.134Z,101757.84
2022-08-30T20:44:19.911Z,101759.72
2022-08-30T20:46:49.454Z,101765.13
2022-08-30T20:49:17.540Z,101765.31
2022-08-30T20:51:52.299Z,101767.00
2022-08-30T20:54:20.815Z,101763.78
2022-08-30T20:56:49.968Z,101765.81
2022-08-30T20:59:17.811Z,101760.53
2022-08-30T21:01:46.018Z,101755.09
2022-08-30T21:04:13.882Z,101758.06
2022-08-30T21:06:41.706Z,101755.53
2022-08-30T21:09:10.769Z,101758.84
2022-08-30T21:11:39.306Z,101757.19
2022-08-30T21:14:12.666Z,101760.72
2022-08-30T21:16:40.442Z,101763.44
2022-08-30T21:19:08.311Z,101758.25
2022-08-30T21:21:36.059Z,101755.66
2022-08-30T21:24:06.771Z,101761.09
2022-08-30T21:26:36.279Z,101765.94
2022-08-30T21:29:04.899Z,101767.81
2022-08-30T21:31:32.744Z,101770.53
2022-08-30T21:34:00.651Z,101770.69
2022-08-30T21:36:45.883Z,101769.09
2022-08-30T21:39:16.900Z,101772.78
2022-08-30T21:41:47.160Z,101768.44
2022-08-30T21:44:16.664Z,101777.59
2022-08-30T21:46:44.648Z,101775.94
2022-08-30T21:49:14.823Z,101774.09
2022-08-30T21:51:45.118Z,101778.03
2022-08-30T21:54:14.857Z,101784.38
2022-08-30T21:56:44.752Z,101784.72
2022-08-30T21:59:14.209Z,101783.91
2022-08-30T22:01:43.533Z,101786.00
2022-08-30T22:04:12.808Z,101792.34
2022-08-30T22:06:42.715Z,101791.66
2022-08-30T22:09:14.427Z,101792.81
2022-08-30T22:11:43.527Z,101800.91
2022-08-30T22:14:14.635Z,101791.91
2022-08-30T22:16:44.617Z,101792.88
2022-08-30T22:19:13.135Z,101796.47
2022-08-30T22:21:42.825Z,101794.91
2022-08-30T22:24:12.388Z,101791.34
2022-08-30T22:26:40.838Z,101797.94
2022-08-30T22:29:09.819Z,101801.69
2022-08-30T22:31:41.511Z,101800.00
2022-08-30T22:34:11.073Z,101806.38
2022-08-30T22:36:39.363Z,101795.44
2022-08-30T22:39:09.724Z,101807.13
2022-08-30T22:41:38.567Z,101810.06
2022-08-30T22:44:06.578Z,101811.09
2022-08-30T22:46:35.905Z,101813.06
2022-08-30T22:49:06.777Z,101807.91
2022-08-30T22:51:34.910Z,101814.19
2022-08-30T22:54:04.621Z,101803.41
2022-08-30T22:56:34.831Z,101804.22
2022-08-30T22:59:03.437Z,101814.44
2022-08-30T23:01:33.232Z,101802.97
2022-08-30T23:04:02.113Z,101806.72
2022-08-30T23:06:31.698Z,101809.38
2022-08-30T23:08:59.439Z,101810.41
2022-08-30T23:11:27.490Z,101812.19
2022-08-30T23:13:57.323Z,101812.03
2022-08-30T23:20:40.016Z,101813.41
2022-08-30T23:23:07.994Z,101809.03
2022-08-30T23:25:53.280Z,101811.66
2022-08-30T23:28:39.783Z,101805.41
2022-08-30T23:31:30.092Z,101809.84
2022-08-30T23:34:16.407Z,101814.03
2022-08-30T23:37:02.059Z,101811.31
2022-08-30T23:39:49.324Z,101813.03
2022-08-30T23:42:34.863Z,101798.56
2022-08-30T23:45:20.239Z,101824.09
2022-08-30T23:48:05.494Z,101821.28
2022-08-30T23:50:50.638Z,101826.06
2022-08-30T23:53:35.725Z,101827.00
2022-08-30T23:56:22.365Z,101823.28
2022-08-30T23:59:07.779Z,101825.06
